createdAt,value
2022-10-09T00:01:29.566Z,52.10
2022-10-09T00:03:59.555Z,51.85
2022-10-09T00:06:32.127Z,51.99
2022-10-09T00:09:05.244Z,51.77
2022-10-09T00:11:35.613Z,51.88
2022-10-09T00:14:05.014Z,51.79
2022-10-09T00:16:34.924Z,51.92
2022-10-09T00:19:03.652Z,51.79
2022-10-09T00:21:34.290Z,51.92
2022-10-09T00:24:05.850Z,52.01
2022-10-09T00:26:37.628Z,51.92
2022-10-09T00:29:06.207Z,51.94
2022-10-09T00:31:36.233Z,51.69
2022-10-09T00:34:04.890Z,52.08
2022-10-09T00:36:33.067Z,52.30
2022-10-09T00:39:01.506Z,52.39
2022-10-09T00:41:34.137Z,52.21
2022-10-09T00:44:04.878Z,52.32
2022-10-09T00:46:38.101Z,52.12
2022-10-09T00:49:15.833Z,52.17
2022-10-09T00:51:47.377Z,52.08
2022-10-09T00:54:18.525Z,52.44
2022-10-09T00:56:49.896Z,52.37
2022-10-09T00:59:19.116Z,52.43
2022-10-09T01:01:49.271Z,52.32
2022-10-09T01:04:17.626Z,52.28
2022-10-09T01:07:05.963Z,52.42
2022-10-09T01:09:42.861Z,52.79
2022-10-09T01:12:21.596Z,52.53
2022-10-09T01:15:00.875Z,52.67
2022-10-09T01:17:37.108Z,52.68
2022-10-09T01:20:26.613Z,52.80
2022-10-09T01:23:08.417Z,52.50
2022-10-09T01:25:45.936Z,52.35
2022-10-09T01:28:20.262Z,52.70
2022-10-09T01:30:50.297Z,52.67
2022-10-09T01:33:28.264Z,52.69
2022-10-09T01:35:57.210Z,52.58
2022-10-09T01:38:27.427Z,52.74
2022-10-09T01:40:58.626Z,52.81
2022-10-09T01:43:32.690Z,52.59
2022-10-09T01:46:20.441Z,53.04
2022-10-09T01:48:57.136Z,52.88
2022-10-09T01:51:31.705Z,52.83
2022-10-09T01:54:03.769Z,52.90
2022-10-09T01:56:36.245Z,52.80
2022-10-09T01:59:15.457Z,52.73
2022-10-09T02:01:45.222Z,52.53
2022-10-09T02:04:16.434Z,52.73
2022-10-09T02:06:47.434Z,52.63
2022-10-09T02:09:19.054Z,52.79
2022-10-09T02:11:50.959Z,52.84
2022-10-09T02:14:21.263Z,52.76
2022-10-09T02:16:54.527Z,52.69
2022-10-09T02:19:27.123Z,52.63
2022-10-09T02:22:01.040Z,52.58
2022-10-09T02:24:30.709Z,52.60
2022-10-09T02:27:00.570Z,52.74
2022-10-09T02:29:30.946Z,52.60
2022-10-09T02:31:59.263Z,52.77
2022-10-09T02:34:27.967Z,53.01
2022-10-09T02:36:56.686Z,53.03
2022-10-09T02:39:25.747Z,53.06
2022-10-09T02:41:54.319Z,52.69
2022-10-09T02:44:27.155Z,52.96
2022-10-09T02:46:57.024Z,52.80
2022-10-09T02:49:27.222Z,52.76
2022-10-09T02:51:55.622Z,53.06
2022-10-09T02:54:23.737Z,52.97
2022-10-09T02:56:51.986Z,53.10
2022-10-09T02:59:20.627Z,53.19
2022-10-09T03:01:48.948Z,53.23
2022-10-09T03:04:18.843Z,53.24
2022-10-09T03:06:47.420Z,53.59
2022-10-09T03:09:16.318Z,53.38
2022-10-09T03:11:44.833Z,53.30
2022-10-09T03:14:16.410Z,53.53
2022-10-09T03:16:44.907Z,53.44
2022-10-09T03:19:13.236Z,53.29
2022-10-09T03:21:42.976Z,53.36
2022-10-09T03:24:11.524Z,53.46
2022-10-09T03:26:39.715Z,53.12
2022-10-09T03:29:10.147Z,53.15
2022-10-09T03:31:53.760Z,53.10
2022-10-09T03:34:22.044Z,53.22
2022-10-09T03:36:51.657Z,53.04
2022-10-09T03:39:19.747Z,53.01
2022-10-09T03:41:48.287Z,53.08
2022-10-09T03:44:16.332Z,52.88
2022-10-09T03:46:44.769Z,52.91
2022-10-09T03:49:12.970Z,53.00
2022-10-09T03:51:41.139Z,52.71
2022-10-09T03:54:10.887Z,52.80
2022-10-09T03:56:39.067Z,52.75
2022-10-09T03:59:09.600Z,52.89
2022-10-09T04:01:38.245Z,52.72
2022-10-09T04:04:06.405Z,52.75
2022-10-09T04:06:34.561Z,52.47
2022-10-09T04:09:02.726Z,52.68
2022-10-09T04:11:32.222Z,52.63
2022-10-09T04:14:00.330Z,53.12
2022-10-09T04:16:28.776Z,52.93
2022-10-09T04:18:59.111Z,52.82
2022-10-09T04:21:27.569Z,52.82
2022-10-09T04:23:55.842Z,52.99
2022-10-09T04:26:24.261Z,52.35
2022-10-09T04:28:54.419Z,52.52
2022-10-09T04:31:22.796Z,52.32
2022-10-09T04:33:52.541Z,52.47
2022-10-09T04:36:20.731Z,52.35
2022-10-09T04:38:49.026Z,52.13
2022-10-09T04:41:17.881Z,52.30
2022-10-09T04:43:46.172Z,52.15
2022-10-09T04:46:16.675Z,52.59
2022-10-09T04:48:46.399Z,52.52
2022-10-09T04:51:15.709Z,52.30
2022-10-09T04:53:44.202Z,52.59
2022-10-09T04:56:14.556Z,52.28
2022-10-09T04:58:43.311Z,52.92
2022-10-09T05:01:13.977Z,52.48
2022-10-09T05:03:43.960Z,52.82
2022-10-09T05:06:46.418Z,52.77
2022-10-09T05:09:14.547Z,52.84
2022-10-09T05:11:43.086Z,52.99
2022-10-09T05:14:11.780Z,52.56
2022-10-09T05:17:08.201Z,53.27
2022-10-09T05:19:29.626Z,53.15
2022-10-09T05:21:57.903Z,53.16
2022-10-09T05:24:26.262Z,53.21
2022-10-09T05:26:54.838Z,53.25
2022-10-09T05:29:23.343Z,53.30
2022-10-09T05:31:52.156Z,53.16
2022-10-09T05:34:22.890Z,53.13
2022-10-09T05:36:52.762Z,53.54
2022-10-09T05:39:21.589Z,53.66
2022-10-09T05:41:50.050Z,53.62
2022-10-09T05:44:20.981Z,53.70
2022-10-09T05:46:53.666Z,54.35
2022-10-09T05:49:22.019Z,53.82
2022-10-09T05:51:50.930Z,53.55
2022-10-09T05:54:20.642Z,53.62
2022-10-09T05:56:49.312Z,53.82
2022-10-09T05:59:20.017Z,53.69
2022-10-09T06:01:50.524Z,53.73
2022-10-09T06:04:21.551Z,53.58
2022-10-09T06:06:50.879Z,53.67
2022-10-09T06:09:23.525Z,53.80
2022-10-09T06:11:52.627Z,53.85
2022-10-09T06:14:22.267Z,53.82
2022-10-09T06:16:51.269Z,54.04
2022-10-09T06:19:21.053Z,54.37
2022-10-09T06:21:50.792Z,54.08
2022-10-09T06:24:27.855Z,54.14
2022-10-09T06:26:56.940Z,54.11
2022-10-09T06:29:25.275Z,54.17
2022-10-09T06:31:53.791Z,54.11
2022-10-09T06:34:25.545Z,54.33
2022-10-09T06:36:53.725Z,54.13
2022-10-09T06:39:24.054Z,54.46
2022-10-09T06:41:52.204Z,54.57
2022-10-09T06:44:20.388Z,54.11
2022-10-09T06:46:51.323Z,54.33
2022-10-09T06:49:19.515Z,54.36
2022-10-09T06:51:47.651Z,54.25
2022-10-09T06:54:18.888Z,54.39
2022-10-09T06:56:48.669Z,54.15
2022-10-09T06:59:16.874Z,54.43
2022-10-09T07:01:45.190Z,54.41
2022-10-09T07:04:15.361Z,54.56
2022-10-09T07:06:45.321Z,54.44
2022-10-09T07:09:16.017Z,54.41
2022-10-09T07:11:46.349Z,54.35
2022-10-09T07:14:17.173Z,54.45
2022-10-09T07:16:49.495Z,54.43
2022-10-09T07:19:18.740Z,54.36
2022-10-09T07:21:49.484Z,54.26
2022-10-09T07:24:20.785Z,54.35
2022-10-09T07:26:52.669Z,54.61
2022-10-09T07:29:23.572Z,54.14
2022-10-09T07:31:53.071Z,54.20
2022-10-09T07:34:22.118Z,54.17
2022-10-09T07:36:50.974Z,54.18
2022-10-09T07:39:20.381Z,54.02
2022-10-09T07:41:51.696Z,54.25
2022-10-09T07:44:19.981Z,54.12
2022-10-09T07:46:51.061Z,53.94
2022-10-09T07:49:19.295Z,53.80
2022-10-09T07:51:49.107Z,54.01
2022-10-09T07:54:17.834Z,54.06
2022-10-09T07:57:13.769Z,53.82
2022-10-09T07:59:42.710Z,53.85
2022-10-09T08:02:20.953Z,53.71
2022-10-09T08:04:53.471Z,53.78
2022-10-09T08:07:23.154Z,53.84
2022-10-09T08:10:06.848Z,54.29
2022-10-09T08:12:47.259Z,53.93
2022-10-09T08:15:17.747Z,53.94
2022-10-09T08:17:48.458Z,53.92
2022-10-09T08:20:20.981Z,53.78
2022-10-09T08:23:04.651Z,53.66
2022-10-09T08:25:39.316Z,53.58
2022-10-09T08:28:07.837Z,53.52
2022-10-09T08:30:39.354Z,53.52
2022-10-09T08:33:09.575Z,53.35
2022-10-09T08:35:40.103Z,53.28
2022-10-09T08:38:25.388Z,53.28
2022-10-09T08:41:05.616Z,53.02
2022-10-09T08:43:36.542Z,52.96
2022-10-09T08:46:09.296Z,52.66
2022-10-09T08:48:45.130Z,52.86
2022-10-09T08:51:24.706Z,52.46
2022-10-09T08:53:57.895Z,52.44
2022-10-09T08:56:30.352Z,52.43
2022-10-09T08:58:59.368Z,52.46
2022-10-09T09:01:39.165Z,52.13
2022-10-09T09:04:51.151Z,52.28
2022-10-09T09:07:34.129Z,52.14
2022-10-09T09:10:14.059Z,51.92
2022-10-09T09:12:51.262Z,51.96
2022-10-09T09:15:48.112Z,52.00
2022-10-09T09:18:33.389Z,51.65
2022-10-09T09:21:13.651Z,51.35
2022-10-09T09:23:50.120Z,51.12
2022-10-09T09:26:22.278Z,50.84
2022-10-09T09:29:00.254Z,50.66
2022-10-09T09:31:36.830Z,50.47
2022-10-09T09:34:12.855Z,50.26
2022-10-09T09:36:58.761Z,50.14
2022-10-09T09:42:21.635Z,49.92
2022-10-09T09:45:01.016Z,49.81
2022-10-09T09:47:39.227Z,49.86
2022-10-09T09:50:42.649Z,49.69
2022-10-09T09:53:14.960Z,49.77
2022-10-09T09:55:46.032Z,49.85
2022-10-09T09:58:22.151Z,49.67
2022-10-09T10:01:03.802Z,49.76
2022-10-09T10:03:38.573Z,49.48
2022-10-09T10:06:32.662Z,49.39
2022-10-09T10:09:05.243Z,49.28
2022-10-09T10:11:35.965Z,49.14
2022-10-09T10:14:09.701Z,48.74
2022-10-09T10:16:42.172Z,48.93
2022-10-09T10:19:23.233Z,48.68
2022-10-09T10:21:59.036Z,48.30
2022-10-09T10:24:34.231Z,48.31
2022-10-09T10:27:06.901Z,47.88
2022-10-09T10:29:39.574Z,48.07
2022-10-09T10:32:17.476Z,47.62
2022-10-09T10:34:52.230Z,47.50
2022-10-09T10:37:35.448Z,47.31
2022-10-09T10:40:17.856Z,47.19
2022-10-09T10:42:59.437Z,46.92
2022-10-09T10:45:37.635Z,47.01
2022-10-09T10:48:16.494Z,46.59
2022-10-09T10:50:57.037Z,45.82
2022-10-09T10:53:41.450Z,45.26
2022-10-09T10:59:44.328Z,43.42
2022-10-09T11:02:40.943Z,42.60
2022-10-09T11:05:24.721Z,41.90
2022-10-09T11:08:24.041Z,41.80
2022-10-09T11:11:03.589Z,41.55
2022-10-09T11:13:36.340Z,41.42
2022-10-09T11:16:44.230Z,41.37
2022-10-09T11:19:32.107Z,41.12
2022-10-09T11:22:10.556Z,40.70
2022-10-09T11:27:22.310Z,40.57
2022-10-09T11:30:08.016Z,40.21
2022-10-09T11:32:44.401Z,40.13
2022-10-09T11:41:06.451Z,40.22
2022-10-09T11:44:20.598Z,39.99
2022-10-09T11:47:29.844Z,40.02
2022-10-09T11:50:15.718Z,39.43
2022-10-09T11:52:55.144Z,39.31
2022-10-09T11:55:28.822Z,39.28
2022-10-09T11:58:19.570Z,38.77
2022-10-09T12:00:54.100Z,38.47
2022-10-09T12:03:35.435Z,38.49
2022-10-09T12:06:14.047Z,38.70
2022-10-09T12:08:59.321Z,39.20
2022-10-09T12:20:29.798Z,39.19
2022-10-09T12:29:11.408Z,38.69
2022-10-09T12:31:49.882Z,38.18
2022-10-09T12:34:27.493Z,38.35
2022-10-09T12:37:17.243Z,38.50
2022-10-09T12:39:54.149Z,38.29
2022-10-09T12:42:29.065Z,38.52
2022-10-09T12:44:58.003Z,38.28
2022-10-09T12:47:29.274Z,37.96
2022-10-09T12:50:04.820Z,37.85
2022-10-09T12:52:38.585Z,37.82
2022-10-09T12:55:35.957Z,37.76
2022-10-09T12:58:17.373Z,37.60
2022-10-09T13:00:48.721Z,37.92
2022-10-09T13:03:26.353Z,38.69
2022-10-09T13:05:55.548Z,38.55
2022-10-09T13:08:33.253Z,38.53
2022-10-09T13:11:11.999Z,38.10
2022-10-09T13:13:43.621Z,37.82
2022-10-09T13:16:13.586Z,37.53
2022-10-09T13:18:43.234Z,37.56
2022-10-09T13:21:25.345Z,37.36
2022-10-09T13:23:56.843Z,37.41
2022-10-09T13:26:28.708Z,37.32
2022-10-09T13:28:59.078Z,37.40
2022-10-09T13:31:27.605Z,37.54
2022-10-09T13:33:55.991Z,37.45
2022-10-09T13:36:26.697Z,38.06
2022-10-09T13:39:00.831Z,37.86
2022-10-09T13:41:29.426Z,37.81
2022-10-09T13:43:58.782Z,37.65
2022-10-09T13:49:16.206Z,37.53
2022-10-09T13:51:45.921Z,37.18
2022-10-09T13:54:18.293Z,37.05
2022-10-09T13:56:47.028Z,36.91
2022-10-09T13:59:18.277Z,36.57
2022-10-09T14:01:46.386Z,36.51
2022-10-09T14:04:14.669Z,35.75
2022-10-09T14:06:46.994Z,35.89
2022-10-09T14:09:15.486Z,35.33
2022-10-09T14:11:46.735Z,35.26
2022-10-09T14:14:15.492Z,35.25
2022-10-09T14:16:47.739Z,35.15
2022-10-09T14:19:17.595Z,35.09
2022-10-09T14:21:48.060Z,33.93
2022-10-09T14:24:16.300Z,33.31
2022-10-09T14:26:50.882Z,32.64
2022-10-09T14:29:24.520Z,33.15
2022-10-09T14:31:52.911Z,32.90
2022-10-09T14:34:23.885Z,32.87
2022-10-09T14:36:53.646Z,33.07
2022-10-09T14:39:22.706Z,33.16
2022-10-09T14:41:52.516Z,33.43
2022-10-09T14:44:21.705Z,33.73
2022-10-09T14:46:51.129Z,34.19
2022-10-09T14:49:21.782Z,34.62
2022-10-09T14:51:50.955Z,34.51
2022-10-09T14:54:24.995Z,34.41
2022-10-09T14:56:55.275Z,34.99
2022-10-09T14:59:27.559Z,35.42
2022-10-09T15:01:56.164Z,35.53
2022-10-09T15:04:33.946Z,36.02
2022-10-09T15:07:09.601Z,36.25
2022-10-09T15:09:45.559Z,36.49
2022-10-09T15:12:16.108Z,36.59
2022-10-09T15:14:50.013Z,36.68
2022-10-09T15:17:19.278Z,36.75
2022-10-09T15:19:48.105Z,36.76
2022-10-09T15:22:16.911Z,36.75
2022-10-09T15:24:45.850Z,36.55
2022-10-09T15:27:22.239Z,36.56
2022-10-09T15:29:52.054Z,36.70
2022-10-09T15:32:21.955Z,36.80
2022-10-09T15:34:51.060Z,36.94
2022-10-09T15:37:20.209Z,36.80
2022-10-09T15:39:52.813Z,36.62
2022-10-09T15:42:23.281Z,36.76
2022-10-09T15:44:53.938Z,37.06
2022-10-09T15:47:49.376Z,36.87
2022-10-09T15:50:12.787Z,36.86
2022-10-09T15:52:41.844Z,37.13
2022-10-09T15:55:13.733Z,37.03
2022-10-09T15:57:44.770Z,37.28
2022-10-09T16:00:14.052Z,37.27
2022-10-09T16:02:45.006Z,37.48
2022-10-09T16:05:13.719Z,37.57
2022-10-09T16:07:42.811Z,37.62
2022-10-09T16:10:13.660Z,37.91
2022-10-09T16:12:44.252Z,37.81
2022-10-09T16:15:16.531Z,38.01
2022-10-09T16:17:47.989Z,38.45
2022-10-09T16:20:16.801Z,38.45
2022-10-09T16:22:50.284Z,38.63
2022-10-09T16:25:18.908Z,38.84
2022-10-09T16:28:08.029Z,38.84
2022-10-09T16:30:44.745Z,38.88
2022-10-09T16:33:13.566Z,38.97
2022-10-09T16:35:45.538Z,39.08
2022-10-09T16:38:20.048Z,39.49
2022-10-09T16:43:48.420Z,39.68
2022-10-09T16:46:22.117Z,39.65
2022-10-09T16:48:52.891Z,39.58
2022-10-09T16:51:32.845Z,40.20
2022-10-09T16:54:16.216Z,40.09
2022-10-09T16:56:46.796Z,40.05
2022-10-09T16:59:20.809Z,39.95
2022-10-09T17:01:50.661Z,40.08
2022-10-09T17:04:20.537Z,40.16
2022-10-09T17:06:48.904Z,40.46
2022-10-09T17:09:18.103Z,40.61
2022-10-09T17:11:46.986Z,40.70
2022-10-09T17:14:17.316Z,40.66
2022-10-09T17:16:50.089Z,40.84
2022-10-09T17:19:18.885Z,40.89
2022-10-09T17:21:49.563Z,41.29
2022-10-09T17:24:17.882Z,41.02
2022-10-09T17:26:46.475Z,41.28
2022-10-09T17:29:18.403Z,41.38
2022-10-09T17:31:48.179Z,41.39
2022-10-09T17:34:17.330Z,41.62
2022-10-09T17:36:46.980Z,41.69
2022-10-09T17:39:20.920Z,42.19
2022-10-09T17:41:50.427Z,41.92
2022-10-09T17:44:23.656Z,42.15
2022-10-09T17:46:52.646Z,42.03
2022-10-09T17:49:22.941Z,42.46
2022-10-09T17:51:52.842Z,42.42
2022-10-09T17:54:21.093Z,42.41
2022-10-09T17:56:49.848Z,42.56
2022-10-09T17:59:19.051Z,42.75
2022-10-09T18:01:54.140Z,42.64
2022-10-09T18:04:22.703Z,42.67
2022-10-09T18:06:51.510Z,42.77
2022-10-09T18:09:19.887Z,42.82
2022-10-09T18:11:51.390Z,43.24
2022-10-09T18:14:21.259Z,43.00
2022-10-09T18:16:51.151Z,43.14
2022-10-09T18:19:20.056Z,43.17
2022-10-09T18:21:50.633Z,43.02
2022-10-09T18:24:19.676Z,43.33
2022-10-09T18:26:49.137Z,43.27
2022-10-09T18:29:18.481Z,43.05
2022-10-09T18:31:58.276Z,43.51
2022-10-09T18:34:26.892Z,43.54
2022-10-09T18:36:59.104Z,43.89
2022-10-09T18:39:31.218Z,43.62
2022-10-09T18:42:25.609Z,43.82
2022-10-09T18:45:13.551Z,43.78
2022-10-09T18:47:46.071Z,44.01
2022-10-09T18:50:15.011Z,43.81
2022-10-09T18:52:55.448Z,44.03
2022-10-09T18:55:26.602Z,44.05
2022-10-09T18:57:55.484Z,43.97
2022-10-09T19:00:24.280Z,44.11
2022-10-09T19:02:53.981Z,44.07
2022-10-09T19:05:22.581Z,44.14
2022-10-09T19:07:51.229Z,44.03
2022-10-09T19:10:21.779Z,44.42
2022-10-09T19:12:52.492Z,44.21
2022-10-09T19:15:21.280Z,44.47
2022-10-09T19:17:49.691Z,44.34
2022-10-09T19:20:19.654Z,44.46
2022-10-09T19:22:48.178Z,44.43
2022-10-09T19:25:16.665Z,44.21
2022-10-09T19:27:46.038Z,44.50
2022-10-09T19:30:15.304Z,44.60
2022-10-09T19:32:47.911Z,44.55
2022-10-09T19:35:17.968Z,44.84
2022-10-09T19:37:50.500Z,44.63
2022-10-09T19:40:19.266Z,44.94
2022-10-09T19:42:48.072Z,44.82
2022-10-09T19:45:17.312Z,44.53
2022-10-09T19:47:45.999Z,44.94
2022-10-09T19:50:15.449Z,45.01
2022-10-09T19:52:43.632Z,45.04
2022-10-09T19:55:14.544Z,45.18
2022-10-09T19:57:42.681Z,45.15
2022-10-09T20:00:12.121Z,45.31
2022-10-09T20:02:40.468Z,45.17
2022-10-09T20:05:09.457Z,45.00
2022-10-09T20:08:01.936Z,45.36
2022-10-09T20:10:32.188Z,45.06
2022-10-09T20:13:01.420Z,45.53
2022-10-09T20:15:30.962Z,45.40
2022-10-09T20:18:01.767Z,45.55
2022-10-09T20:20:32.290Z,45.58
2022-10-09T20:23:00.906Z,45.29
2022-10-09T20:25:29.740Z,45.35
2022-10-09T20:28:04.050Z,45.61
2022-10-09T20:30:33.567Z,45.70
2022-10-09T20:33:02.166Z,45.61
2022-10-09T20:35:36.574Z,46.01
2022-10-09T20:38:10.421Z,46.11
2022-10-09T20:40:47.672Z,46.14
2022-10-09T20:43:17.970Z,46.53
2022-10-09T20:45:49.073Z,46.73
2022-10-09T20:48:19.267Z,46.88
2022-10-09T20:51:09.019Z,47.07
2022-10-09T20:53:48.341Z,47.24
2022-10-09T20:56:19.834Z,47.35
2022-10-09T20:58:49.621Z,47.39
2022-10-09T21:01:17.957Z,47.72
2022-10-09T21:03:46.109Z,47.81
2022-10-09T21:06:17.539Z,48.15
2022-10-09T21:08:48.342Z,48.24
2022-10-09T21:11:17.799Z,48.28
2022-10-09T21:13:46.784Z,48.29
2022-10-09T21:16:18.829Z,48.25
2022-10-09T21:18:55.145Z,49.03
2022-10-09T21:21:23.770Z,49.09
2022-10-09T21:23:57.728Z,48.68
2022-10-09T21:26:29.830Z,49.06
2022-10-09T21:37:37.686Z,49.65
2022-10-09T21:40:13.019Z,49.72
2022-10-09T21:55:45.424Z,50.41
2022-10-09T22:01:15.129Z,50.35
2022-10-09T22:04:28.834Z,50.54
2022-10-09T22:06:57.799Z,50.60
2022-10-09T22:09:34.708Z,50.58
2022-10-09T22:12:04.169Z,50.74
2022-10-09T22:14:44.732Z,50.67
2022-10-09T22:17:13.433Z,50.56
2022-10-09T22:19:45.896Z,50.70
2022-10-09T22:22:18.059Z,50.77
2022-10-09T22:25:05.581Z,50.74
2022-10-09T22:27:35.527Z,50.73
2022-10-09T22:30:09.640Z,50.69
2022-10-09T22:32:40.468Z,50.98
2022-10-09T22:35:14.549Z,50.97
2022-10-09T22:47:14.761Z,51.21
2022-10-09T22:53:04.278Z,50.94
2022-10-09T23:02:11.599Z,51.11
2022-10-09T23:04:48.279Z,51.32
2022-10-09T23:10:54.050Z,51.20
2022-10-09T23:13:38.011Z,51.61
2022-10-09T23:16:13.450Z,51.47
2022-10-09T23:25:03.904Z,51.40
2022-10-09T23:31:12.298Z,51.75
2022-10-09T23:33:49.460Z,51.47
2022-10-09T23:36:27.755Z,51.48
2022-10-09T23:38:58.769Z,51.84
2022-10-09T23:41:34.744Z,51.94
2022-10-09T23:44:12.512Z,51.74
2022-10-09T23:46:45.370Z,51.87
2022-10-09T23:49:15.038Z,51.89
2022-10-09T23:51:43.971Z,51.87
2022-10-09T23:54:15.107Z,51.87
2022-10-09T23:59:52.697Z,51.72
